Ryuhomaru — JD2639 — position and weather

sailwx.info

Track history (hours):
 
Tides and Currents Weather Stations Pressure Air Temp Water Temp Dewpoint Dewpoint Depression Visibility Wind Speed Wind Dir Waves Ship Positions

Ryuhomaru

Last reported at 2015-May-28 01:31 UTC. Time now 2015-May-28 02:05 UTC.
Position N 34°33' E 135°27'.

Length 42 m; draft 3.5 m.

Type: Tug. MMSI: 431000586.

Date/timePositionNaut miles runAvg speedWind from/ knotsBaromVisibWave heightAir tempDewpointWater temp
2015-May-28 01:31N 34°33' E 135°27'0 0.0
2015-May-28 00:33N 34°33' E 135°27'0 0.0
2015-May-27 12:34N 34°33' E 135°27'1312.5
2015-May-27 11:33N 34°34' E 135°11'1413.8
2015-May-27 10:31N 34°37' E 134°54'6 0.7
2015-May-27 02:12N 34°41' E 134°49'1 0.1
2015-May-26 06:24N 34°40' E 134°50'1113.0
2015-May-26 05:33N 34°37' E 135°03'1313.2
2015-May-26 04:33N 34°34' E 135°19'6 6.4
2015-May-26 03:33N 34°33' E 135°27'0 0.0
2015-May-26 02:33N 34°33' E 135°27'0 0.0
2015-May-26 01:33N 34°33' E 135°27'0 0.0
2015-May-26 00:34N 34°33' E 135°27'0 0.0
2015-May-25 23:33N 34°33' E 135°27'0 0.0
2015-May-25 22:34N 34°33' E 135°27'0 0.0
2015-May-25 11:17N 34°33' E 135°27'5 7.1
2015-May-25 10:34N 34°33' E 135°20'1414.1
2015-May-25 09:34N 34°24' E 135°07'11 5.1
2015-May-25 07:27N 34°34' E 135°03'4 4.6
2015-May-25 06:33N 34°37' E 134°59'9 9.2
2015-May-25 05:33N 34°36' E 135°10'1413.0
2015-May-25 04:31N 34°33' E 135°26'0 0.4
2015-May-25 03:34N 34°33' E 135°27'0 0.0
2015-May-25 02:33N 34°33' E 135°27'0 0.0
2015-May-25 01:33N 34°33' E 135°27'3 2.7
2015-May-25 00:29N 34°33' E 135°23'2 2.5
2015-May-24 23:33N 34°33' E 135°26'1 0.6
2015-May-24 22:32N 34°33' E 135°27'0 0.0
2015-May-23 05:33N 34°33' E 135°27'10 9.9
2015-May-23 04:33N 34°30' E 135°15'13 6.3
2015-May-23 02:32N 34°24' E 135°02'1514.8
2015-May-23 01:33N 34°32' E 135°16'7 6.9
2015-May-23 00:32N 34°34' E 135°24'0 0.0
2015-May-22 23:32N 34°34' E 135°24'0 0.1
2015-May-22 22:33N 34°34' E 135°24'0 0.0
2015-May-22 21:32N 34°34' E 135°24'0 0.1
2015-May-22 20:31N 34°34' E 135°24'0 0.1
2015-May-22 19:33N 34°34' E 135°24'0 0.1
2015-May-22 18:33N 34°34' E 135°24'0 0.1
2015-May-22 17:33N 34°34' E 135°24'0 0.1
2015-May-22 16:33N 34°34' E 135°24'0 0.0
2015-May-22 15:32N 34°34' E 135°24'0 0.1
2015-May-22 14:33N 34°34' E 135°24'0 0.0
2015-May-22 13:33N 34°34' E 135°24'0 0.1
2015-May-22 12:33N 34°34' E 135°24'0 0.1
2015-May-22 11:33N 34°34' E 135°24'0 0.0
2015-May-22 10:32N 34°34' E 135°24'0 0.1
2015-May-22 09:32N 34°34' E 135°24'0 0.1
2015-May-22 08:33N 34°34' E 135°24'0 0.0
2015-May-22 07:33N 34°34' E 135°24'0 0.1
2015-May-22 06:32N 34°34' E 135°24'0 0.1
2015-May-22 05:33N 34°34' E 135°24'0 0.1
2015-May-22 04:31N 34°34' E 135°24'0 0.0
2015-May-22 03:32N 34°34' E 135°24'0 0.1
2015-May-22 02:06N 34°34' E 135°24'0 0.0
2015-May-22 01:33N 34°34' E 135°24'4 3.6
2015-May-22 00:33N 34°33' E 135°20'1111.1
2015-May-21 23:33N 34°27' E 135°09'1313.0
2015-May-21 22:32N 34°16' E 134°59'5 5.1
2015-May-21 21:33N 34°11' E 135°01'1312.7
2015-May-21 20:33N 34°24' E 135°04'1313.0
2015-May-21 19:34N 34°31' E 135°18'8 7.8
2015-May-21 18:34N 34°33' E 135°27'  
2015-May-19 08:30N 34°33' E 135°27'6 6.4
2015-May-19 07:33N 34°39' E 135°24'3 2.8
2015-May-19 06:33N 34°36' E 135°24'0 0.0
2015-May-19 05:32N 34°36' E 135°24'0 0.0
2015-May-19 04:32N 34°36' E 135°24'2 1.2
2015-May-19 02:31N 34°34' E 135°24'3 3.6
2015-May-19 01:33N 34°33' E 135°20'5 5.2
2015-May-19 00:33N 34°33' E 135°27'0 0.0
2015-May-18 08:15N 34°33' E 135°27'1 1.7
2015-May-18 07:29N 34°33' E 135°25'1 1.3
2015-May-18 06:31N 34°33' E 135°27'0 0.1
2015-May-18 05:33N 34°33' E 135°27'0 0.0
2015-May-18 04:33N 34°33' E 135°27'6 5.9
2015-May-18 03:34N 34°39' E 135°25'1 0.7
2015-May-18 02:33N 34°39' E 135°24'4 3.5
2015-May-18 01:33N 34°35' E 135°23'  
Track history (hours):
 
Tides and Currents Weather Stations Pressure Air Temp Water Temp Dewpoint Dewpoint Depression Visibility Wind Speed Wind Dir Waves Ship Positions

Ryuhomaru

Last reported at 2015-May-28 01:31 UTC. Time now 2015-May-28 02:05 UTC.
Position N 34°33' E 135°27'.

Length 42 m; draft 3.5 m.

Type: Tug. MMSI: 431000586.

Date/timePositionNaut miles runAvg speedWind from/ knotsBaromVisibWave heightAir tempDewpointWater temp
2015-May-28 01:31N 34°33' E 135°27'0 0.0
2015-May-28 00:33N 34°33' E 135°27'0 0.0
2015-May-27 12:34N 34°33' E 135°27'1312.5
2015-May-27 11:33N 34°34' E 135°11'1413.8
2015-May-27 10:31N 34°37' E 134°54'6 0.7
2015-May-27 02:12N 34°41' E 134°49'1 0.1
2015-May-26 06:24N 34°40' E 134°50'1113.0
2015-May-26 05:33N 34°37' E 135°03'1313.2
2015-May-26 04:33N 34°34' E 135°19'6 6.4
2015-May-26 03:33N 34°33' E 135°27'0 0.0
2015-May-26 02:33N 34°33' E 135°27'0 0.0
2015-May-26 01:33N 34°33' E 135°27'0 0.0
2015-May-26 00:34N 34°33' E 135°27'0 0.0
2015-May-25 23:33N 34°33' E 135°27'0 0.0
2015-May-25 22:34N 34°33' E 135°27'0 0.0
2015-May-25 11:17N 34°33' E 135°27'5 7.1
2015-May-25 10:34N 34°33' E 135°20'1414.1
2015-May-25 09:34N 34°24' E 135°07'11 5.1
2015-May-25 07:27N 34°34' E 135°03'4 4.6
2015-May-25 06:33N 34°37' E 134°59'9 9.2
2015-May-25 05:33N 34°36' E 135°10'1413.0
2015-May-25 04:31N 34°33' E 135°26'0 0.4
2015-May-25 03:34N 34°33' E 135°27'0 0.0
2015-May-25 02:33N 34°33' E 135°27'0 0.0
2015-May-25 01:33N 34°33' E 135°27'3 2.7
2015-May-25 00:29N 34°33' E 135°23'2 2.5
2015-May-24 23:33N 34°33' E 135°26'1 0.6
2015-May-24 22:32N 34°33' E 135°27'0 0.0
2015-May-23 05:33N 34°33' E 135°27'10 9.9
2015-May-23 04:33N 34°30' E 135°15'13 6.3
2015-May-23 02:32N 34°24' E 135°02'1514.8
2015-May-23 01:33N 34°32' E 135°16'7 6.9
2015-May-23 00:32N 34°34' E 135°24'0 0.0
2015-May-22 23:32N 34°34' E 135°24'0 0.1
2015-May-22 22:33N 34°34' E 135°24'0 0.0
2015-May-22 21:32N 34°34' E 135°24'0 0.1
2015-May-22 20:31N 34°34' E 135°24'0 0.1
2015-May-22 19:33N 34°34' E 135°24'0 0.1
2015-May-22 18:33N 34°34' E 135°24'0 0.1
2015-May-22 17:33N 34°34' E 135°24'0 0.1
2015-May-22 16:33N 34°34' E 135°24'0 0.0
2015-May-22 15:32N 34°34' E 135°24'0 0.1
2015-May-22 14:33N 34°34' E 135°24'0 0.0
2015-May-22 13:33N 34°34' E 135°24'0 0.1
2015-May-22 12:33N 34°34' E 135°24'0 0.1
2015-May-22 11:33N 34°34' E 135°24'0 0.0
2015-May-22 10:32N 34°34' E 135°24'0 0.1
2015-May-22 09:32N 34°34' E 135°24'0 0.1
2015-May-22 08:33N 34°34' E 135°24'0 0.0
2015-May-22 07:33N 34°34' E 135°24'0 0.1
2015-May-22 06:32N 34°34' E 135°24'0 0.1
2015-May-22 05:33N 34°34' E 135°24'0 0.1
2015-May-22 04:31N 34°34' E 135°24'0 0.0
2015-May-22 03:32N 34°34' E 135°24'0 0.1
2015-May-22 02:06N 34°34' E 135°24'0 0.0
2015-May-22 01:33N 34°34' E 135°24'4 3.6
2015-May-22 00:33N 34°33' E 135°20'1111.1
2015-May-21 23:33N 34°27' E 135°09'1313.0
2015-May-21 22:32N 34°16' E 134°59'5 5.1
2015-May-21 21:33N 34°11' E 135°01'1312.7
2015-May-21 20:33N 34°24' E 135°04'1313.0
2015-May-21 19:34N 34°31' E 135°18'8 7.8
2015-May-21 18:34N 34°33' E 135°27'  
2015-May-19 08:30N 34°33' E 135°27'6 6.4
2015-May-19 07:33N 34°39' E 135°24'3 2.8
2015-May-19 06:33N 34°36' E 135°24'0 0.0
2015-May-19 05:32N 34°36' E 135°24'0 0.0
2015-May-19 04:32N 34°36' E 135°24'2 1.2
2015-May-19 02:31N 34°34' E 135°24'3 3.6
2015-May-19 01:33N 34°33' E 135°20'5 5.2
2015-May-19 00:33N 34°33' E 135°27'0 0.0
2015-May-18 08:15N 34°33' E 135°27'1 1.7
2015-May-18 07:29N 34°33' E 135°25'1 1.3
2015-May-18 06:31N 34°33' E 135°27'0 0.1
2015-May-18 05:33N 34°33' E 135°27'0 0.0
2015-May-18 04:33N 34°33' E 135°27'6 5.9
2015-May-18 03:34N 34°39' E 135°25'1 0.7
2015-May-18 02:33N 34°39' E 135°24'4 3.5
2015-May-18 01:33N 34°35' E 135°23'  

Dump ship's entire track history